Time,TemperatureF,DewpointF,PressureIn,WindDirection,WindDirectionDegrees,WindSpeedMPH,WindSpeedGustMPH,Humidity,HourlyPrecipIn,Conditions,Clouds,dailyrainin,SolarRadiationWatts/m^2,SoftwareType,DateUTC
2013-05-30 00:04:00,45.4,39.6,29.70,South,189,10.0,12.0,80,0.00,,,0.00,0,Wunderground v.1.15,2013-05-30 06:04:00,
2013-05-30 00:10:00,45.2,39.4,29.70,South,178,13.0,21.0,80,0.00,,,0.00,0,Wunderground v.1.15,2013-05-30 06:10:00,
2013-05-30 00:16:00,45.2,39.4,29.70,SSW,202,13.0,21.0,80,0.00,,,0.00,0,Wunderground v.1.15,2013-05-30 06:16:00,
2013-05-30 00:22:00,45.1,39.0,29.70,SSW,212,10.0,11.0,79,0.00,,,0.00,0,Wunderground v.1.15,2013-05-30 06:22:00,
2013-05-30 00:28:00,45.1,39.0,29.70,SSW,203,10.0,11.0,79,0.00,,,0.00,0,Wunderground v.1.15,2013-05-30 06:28:00,
2013-05-30 00:34:00,45.1,38.3,29.70,South,180,11.0,17.0,77,0.00,,,0.00,0,Wunderground v.1.15,2013-05-30 06:34:00,
2013-05-30 00:40:00,45.2,38.7,29.71,South,171,13.0,15.0,78,0.00,,,0.00,0,Wunderground v.1.15,2013-05-30 06:40:00,
2013-05-30 00:46:00,45.2,38.4,29.71,SSW,195,12.0,15.0,77,0.00,,,0.00,0,Wunderground v.1.15,2013-05-30 06:46:00,
2013-05-30 00:52:00,45.1,38.3,29.71,South,175,11.0,11.0,77,0.00,,,0.00,0,Wunderground v.1.15,2013-05-30 06:52:00,
2013-05-30 01:00:00,45.0,38.2,29.71,SSW,196,9.0,9.0,77,0.00,,,0.00,0,Wunderground v.1.15,2013-05-30 07:00:00,
2013-05-30 01:06:00,45.0,37.9,29.71,SSW,202,9.0,9.0,76,0.00,,,0.00,0,Wunderground v.1.15,2013-05-30 07:06:00,
2013-05-30 01:12:00,45.0,38.2,29.71,South,189,8.0,8.0,77,0.00,,,0.00,0,Wunderground v.1.15,2013-05-30 07:12:00,
2013-05-30 01:18:00,45.0,37.9,29.71,South,181,8.0,9.0,76,0.00,,,0.00,0,Wunderground v.1.15,2013-05-30 07:18:00,
2013-05-30 01:24:00,45.1,38.3,29.71,SSW,205,10.0,15.0,77,0.00,,,0.00,0,Wunderground v.1.15,2013-05-30 07:24:00,
2013-05-30 01:30:00,45.1,38.0,29.72,SSE,167,9.0,12.0,76,0.00,,,0.00,0,Wunderground v.1.15,2013-05-30 07:30:00,
2013-05-30 01:36:00,45.1,38.0,29.72,South,186,9.0,12.0,76,0.00,,,0.00,0,Wunderground v.1.15,2013-05-30 07:36:00,
2013-05-30 01:42:00,45.1,38.0,29.72,South,171,10.0,10.0,76,0.00,,,0.00,0,Wunderground v.1.15,2013-05-30 07:42:00,
2013-05-30 01:48:00,45.2,38.1,29.72,South,186,9.0,16.0,76,0.00,,,0.00,0,Wunderground v.1.15,2013-05-30 07:48:00,
2013-05-30 01:54:00,45.1,38.6,29.72,SSW,209,7.0,8.0,78,0.00,,,0.00,0,Wunderground v.1.15,2013-05-30 07:54:00,
2013-05-30 02:00:00,45.1,39.3,29.72,SSW,202,5.0,5.0,80,0.00,,,0.00,0,Wunderground v.1.15,2013-05-30 08:00:00,
2013-05-30 02:06:00,45.0,40.1,29.72,SW,223,4.0,5.0,83,0.00,,,0.00,0,Wunderground v.1.15,2013-05-30 08:06:00,
2013-05-30 02:12:00,44.8,40.3,29.72,SW,223,2.0,3.0,84,0.00,,,0.00,0,Wunderground v.1.15,2013-05-30 08:12:00,
2013-05-30 02:20:00,44.6,40.4,29.72,SW,234,1.0,4.0,85,0.00,,,0.00,0,Wunderground v.1.15,2013-05-30 08:20:00,
2013-05-30 02:28:00,44.4,40.5,29.72,WSW,242,4.0,5.0,86,0.00,,,0.00,0,Wunderground v.1.15,2013-05-30 08:28:00,
2013-05-30 02:36:00,44.2,40.6,29.72,West,259,6.0,6.0,87,0.00,,,0.00,0,Wunderground v.1.15,2013-05-30 08:36:00,
2013-05-30 02:46:00,44.1,40.5,29.72,WNW,294,7.0,7.0,87,0.00,,,0.00,0,Wunderground v.1.15,2013-05-30 08:46:00,
2013-05-30 02:52:00,43.9,40.3,29.72,West,277,6.0,9.0,87,0.00,,,0.00,0,Wunderground v.1.15,2013-05-30 08:52:00,
2013-05-30 03:00:00,43.8,39.9,29.72,WNW,282,4.0,4.0,86,0.00,,,0.00,0,Wunderground v.1.15,2013-05-30 09:00:00,
2013-05-30 03:06:00,43.6,40.0,29.72,West,281,3.0,4.0,87,0.00,,,0.00,0,Wunderground v.1.15,2013-05-30 09:06:00,
2013-05-30 03:12:00,43.5,39.9,29.72,WNW,293,2.0,4.0,87,0.00,,,0.00,0,Wunderground v.1.15,2013-05-30 09:12:00,
2013-05-30 03:18:00,43.4,39.8,29.72,WNW,298,3.0,4.0,87,0.00,,,0.00,0,Wunderground v.1.15,2013-05-30 09:18:00,
2013-05-30 03:28:00,43.2,39.6,29.72,WNW,300,3.0,4.0,87,0.00,,,0.00,0,Wunderground v.1.15,2013-05-30 09:28:00,
2013-05-30 03:34:00,43.1,39.5,29.72,West,280,2.0,4.0,87,0.00,,,0.00,0,Wunderground v.1.15,2013-05-30 09:34:00,
2013-05-30 03:40:00,43.1,39.5,29.72,WNW,297,3.0,3.0,87,0.00,,,0.00,0,Wunderground v.1.15,2013-05-30 09:40:00,
2013-05-30 03:46:00,43.1,39.5,29.72,WNW,297,2.0,3.0,87,0.00,,,0.00,0,Wunderground v.1.15,2013-05-30 09:46:00,
2013-05-30 03:52:00,43.0,39.4,29.72,WNW,297,0.0,0.0,87,0.00,,,0.00,0,Wunderground v.1.15,2013-05-30 09:52:00,
2013-05-30 03:58:00,42.9,39.3,29.72,WNW,297,0.0,0.0,87,0.00,,,0.00,0,Wunderground v.1.15,2013-05-30 09:58:00,
2013-05-30 04:04:00,42.8,39.2,29.72,WNW,297,1.0,6.0,87,0.00,,,0.00,0,Wunderground v.1.15,2013-05-30 10:04:00,
2013-05-30 04:10:00,42.8,39.2,29.72,WNW,297,3.0,3.0,87,0.00,,,0.00,0,Wunderground v.1.15,2013-05-30 10:10:00,
2013-05-30 04:18:00,42.7,39.4,29.72,West,281,3.0,6.0,88,0.00,,,0.00,0,Wunderground v.1.15,2013-05-30 10:18:00,
2013-05-30 04:24:00,42.7,39.1,29.72,WNW,295,5.0,6.0,87,0.00,,,0.00,0,Wunderground v.1.15,2013-05-30 10:24:00,
2013-05-30 04:34:00,42.8,39.5,29.72,West,277,6.0,6.0,88,0.00,,,0.00,0,Wunderground v.1.15,2013-05-30 10:34:00,
2013-05-30 04:40:00,42.9,39.3,29.72,West,275,5.0,5.0,87,0.00,,,0.00,0,Wunderground v.1.15,2013-05-30 10:40:00,
2013-05-30 04:50:00,42.8,39.2,29.73,West,262,3.0,3.0,87,0.00,,,0.00,0,Wunderground v.1.15,2013-05-30 10:50:00,
2013-05-30 04:56:00,42.8,39.2,29.73,West,264,1.0,3.0,87,0.00,,,0.00,0,Wunderground v.1.15,2013-05-30 10:56:00,
2013-05-30 05:02:00,42.7,39.1,29.73,West,264,1.0,1.0,87,0.00,,,0.00,0,Wunderground v.1.15,2013-05-30 11:02:00,
2013-05-30 05:08:00,42.7,39.1,29.73,West,260,1.0,2.0,87,0.00,,,0.00,0,Wunderground v.1.15,2013-05-30 11:08:00,
2013-05-30 05:14:00,42.6,39.0,29.72,WNW,283,1.0,4.0,87,0.00,,,0.00,0,Wunderground v.1.15,2013-05-30 11:14:00,
2013-05-30 05:20:00,42.6,39.0,29.73,WNW,283,1.0,4.0,87,0.00,,,0.00,0,Wunderground v.1.15,2013-05-30 11:20:00,
2013-05-30 05:26:00,42.6,39.0,29.73,SSW,199,3.0,5.0,87,0.00,,,0.00,0,Wunderground v.1.15,2013-05-30 11:26:00,
2013-05-30 05:34:00,42.7,39.1,29.74,WNW,289,3.0,4.0,87,0.00,,,0.00,0,Wunderground v.1.15,2013-05-30 11:34:00,
2013-05-30 05:40:00,42.7,39.1,29.74,WSW,240,3.0,5.0,87,0.00,,,0.00,0,Wunderground v.1.15,2013-05-30 11:40:00,
2013-05-30 05:46:00,42.7,39.4,29.74,WSW,237,4.0,6.0,88,0.00,,,0.00,0,Wunderground v.1.15,2013-05-30 11:46:00,
2013-05-30 05:54:00,42.6,38.7,29.74,WSW,239,3.0,3.0,86,0.00,,,0.00,0,Wunderground v.1.15,2013-05-30 11:54:00,
2013-05-30 06:00:00,42.6,38.7,29.74,SW,232,2.0,3.0,86,0.00,,,0.00,5,Wunderground v.1.15,2013-05-30 12:00:00,
2013-05-30 06:06:00,42.6,38.7,29.74,SSW,205,1.0,7.0,86,0.00,,,0.00,5,Wunderground v.1.15,2013-05-30 12:06:00,
2013-05-30 06:12:00,42.7,38.5,29.75,WSW,248,3.0,5.0,85,0.00,,,0.00,7,Wunderground v.1.15,2013-05-30 12:12:00,
2013-05-30 06:22:00,42.8,38.6,29.75,WSW,248,0.0,0.0,85,0.00,,,0.00,9,Wunderground v.1.15,2013-05-30 12:22:00,
2013-05-30 06:28:00,42.8,38.6,29.75,WSW,248,0.0,0.0,85,0.00,,,0.00,14,Wunderground v.1.15,2013-05-30 12:28:00,
2013-05-30 06:34:00,42.8,38.3,29.75,SSW,196,1.0,6.0,84,0.00,,,0.00,16,Wunderground v.1.15,2013-05-30 12:34:00,
2013-05-30 06:40:00,42.8,38.3,29.75,SSW,200,1.0,4.0,84,0.00,,,0.00,23,Wunderground v.1.15,2013-05-30 12:40:00,
2013-05-30 06:46:00,42.9,38.1,29.76,SSW,207,1.0,6.0,83,0.00,,,0.00,26,Wunderground v.1.15,2013-05-30 12:46:00,
2013-05-30 06:54:00,43.2,38.4,29.75,West,260,3.0,3.0,83,0.00,,,0.00,35,Wunderground v.1.15,2013-05-30 12:54:00,
2013-05-30 07:02:00,43.4,38.9,29.76,SW,235,1.0,1.0,84,0.00,,,0.00,39,Wunderground v.1.15,2013-05-30 13:02:00,
2013-05-30 07:08:00,43.5,39.0,29.76,WSW,244,1.0,4.0,84,0.00,,,0.00,44,Wunderground v.1.15,2013-05-30 13:08:00,
2013-05-30 07:14:00,43.6,39.4,29.76,WSW,249,1.0,3.0,85,0.00,,,0.00,53,Wunderground v.1.15,2013-05-30 13:14:00,
2013-05-30 07:20:00,43.7,39.8,29.76,WSW,247,0.0,0.0,86,0.00,,,0.00,60,Wunderground v.1.15,2013-05-30 13:20:00,
2013-05-30 07:26:00,43.8,39.9,29.76,WNW,294,0.0,3.0,86,0.00,,,0.00,77,Wunderground v.1.15,2013-05-30 13:26:00,
2013-05-30 07:32:00,43.9,40.0,29.76,WNW,293,1.0,2.0,86,0.00,,,0.00,86,Wunderground v.1.15,2013-05-30 13:32:00,
2013-05-30 07:38:00,44.0,39.8,29.77,WNW,292,1.0,2.0,85,0.00,,,0.00,97,Wunderground v.1.15,2013-05-30 13:38:00,
2013-05-30 07:44:00,44.1,40.2,29.76,West,273,1.0,4.0,86,0.00,,,0.00,109,Wunderground v.1.15,2013-05-30 13:44:00,
2013-05-30 07:50:00,44.4,40.5,29.76,SW,234,1.0,2.0,86,0.00,,,0.00,114,Wunderground v.1.15,2013-05-30 13:50:00,
2013-05-30 07:56:00,44.7,38.9,29.76,SSW,213,3.0,6.0,80,0.00,,,0.01,130,Wunderground v.1.15,2013-05-30 13:56:00,
2013-05-30 08:02:00,44.9,38.5,29.76,WSW,255,3.0,4.0,78,0.00,,,0.01,128,Wunderground v.1.15,2013-05-30 14:02:00,
2013-05-30 08:08:00,45.0,38.9,29.76,WSW,255,1.0,4.0,79,0.00,,,0.01,139,Wunderground v.1.15,2013-05-30 14:08:00,
2013-05-30 08:16:00,45.3,38.5,29.76,SSW,211,1.0,6.0,77,0.00,,,0.01,156,Wunderground v.1.15,2013-05-30 14:16:00,
2013-05-30 08:22:00,45.6,38.8,29.76,South,171,3.0,3.0,77,0.00,,,0.01,181,Wunderground v.1.15,2013-05-30 14:22:00,
2013-05-30 08:30:00,45.8,37.6,29.77,SSE,162,6.0,13.0,73,0.00,,,0.01,197,Wunderground v.1.15,2013-05-30 14:30:00,
2013-05-30 08:36:00,46.1,37.6,29.77,South,189,8.0,13.0,72,0.00,,,0.01,202,Wunderground v.1.15,2013-05-30 14:36:00,
2013-05-30 08:44:00,46.4,36.8,29.77,South,173,7.0,9.0,69,0.00,,,0.01,237,Wunderground v.1.15,2013-05-30 14:44:00,
2013-05-30 08:50:00,46.6,37.3,29.77,South,175,7.0,7.0,70,0.00,,,0.01,278,Wunderground v.1.15,2013-05-30 14:50:00,
2013-05-30 08:56:00,47.1,36.7,29.77,SSE,161,10.0,12.0,67,0.00,,,0.01,288,Wunderground v.1.15,2013-05-30 14:56:00,
2013-05-30 09:02:00,47.4,37.0,29.77,SSE,165,13.0,13.0,67,0.00,,,0.01,285,Wunderground v.1.15,2013-05-30 15:02:00,
2013-05-30 09:08:00,47.5,36.7,29.78,SSW,202,13.0,14.0,66,0.00,,,0.01,206,Wunderground v.1.15,2013-05-30 15:08:00,
2013-05-30 09:14:00,47.4,36.6,29.78,South,181,13.0,13.0,66,0.00,,,0.01,214,Wunderground v.1.15,2013-05-30 15:14:00,
2013-05-30 09:20:00,47.4,37.0,29.78,SSE,163,11.0,14.0,67,0.00,,,0.01,271,Wunderground v.1.15,2013-05-30 15:20:00,
2013-05-30 09:26:00,47.5,35.9,29.77,SSE,164,12.0,15.0,64,0.00,,,0.01,272,Wunderground v.1.15,2013-05-30 15:26:00,
2013-05-30 09:32:00,47.7,36.1,29.78,South,175,13.0,13.0,64,0.00,,,0.01,299,Wunderground v.1.15,2013-05-30 15:32:00,
2013-05-30 09:38:00,48.0,38.3,29.78,SW,230,12.0,13.0,69,0.00,,,0.01,348,Wunderground v.1.15,2013-05-30 15:38:00,
2013-05-30 09:44:00,48.4,39.4,29.77,WSW,238,7.0,10.0,71,0.00,,,0.01,434,Wunderground v.1.15,2013-05-30 15:44:00,
2013-05-30 09:50:00,49.0,39.6,29.77,SW,225,5.0,5.0,70,0.00,,,0.01,359,Wunderground v.1.15,2013-05-30 15:50:00,
2013-05-30 09:56:00,49.5,39.4,29.77,West,274,5.0,7.0,68,0.00,,,0.01,543,Wunderground v.1.15,2013-05-30 15:56:00,
2013-05-30 10:02:00,50.1,39.6,29.77,WSW,238,5.0,12.0,67,0.00,,,0.01,283,Wunderground v.1.15,2013-05-30 16:02:00,
2013-05-30 10:08:00,50.2,40.4,29.77,SW,231,5.0,12.0,69,0.00,,,0.01,237,Wunderground v.1.15,2013-05-30 16:08:00,
2013-05-30 10:14:00,50.1,39.6,29.77,West,276,3.0,5.0,67,0.00,,,0.01,202,Wunderground v.1.15,2013-05-30 16:14:00,
2013-05-30 10:20:00,49.9,39.4,29.77,WSW,257,5.0,5.0,67,0.00,,,0.01,220,Wunderground v.1.15,2013-05-30 16:20:00,
2013-05-30 10:26:00,49.6,39.5,29.77,West,267,5.0,6.0,68,0.00,,,0.01,272,Wunderground v.1.15,2013-05-30 16:26:00,
2013-05-30 10:32:00,49.5,39.0,29.77,WNW,290,4.0,6.0,67,0.00,,,0.01,260,Wunderground v.1.15,2013-05-30 16:32:00,
2013-05-30 10:38:00,49.4,38.5,29.76,West,271,5.0,6.0,66,0.00,,,0.01,278,Wunderground v.1.15,2013-05-30 16:38:00,
2013-05-30 10:44:00,49.6,38.7,29.77,SW,216,4.0,11.0,66,0.00,,,0.01,193,Wunderground v.1.15,2013-05-30 16:44:00,
2013-05-30 10:50:00,49.6,38.7,29.77,WSW,245,6.0,6.0,66,0.00,,,0.01,225,Wunderground v.1.15,2013-05-30 16:50:00,
2013-05-30 10:56:00,49.6,39.1,29.77,WNW,292,4.0,7.0,67,0.00,,,0.01,364,Wunderground v.1.15,2013-05-30 16:56:00,
2013-05-30 11:02:00,49.6,39.5,29.77,WNW,300,4.0,4.0,68,0.00,,,0.01,352,Wunderground v.1.15,2013-05-30 17:02:00,
2013-05-30 11:08:00,49.9,39.4,29.77,WSW,248,4.0,7.0,67,0.00,,,0.01,281,Wunderground v.1.15,2013-05-30 17:08:00,
2013-05-30 11:14:00,50.0,40.6,29.77,West,263,5.0,6.0,70,0.00,,,0.01,329,Wunderground v.1.15,2013-05-30 17:14:00,
2013-05-30 11:20:00,50.3,42.3,29.77,WNW,289,5.0,5.0,74,0.00,,,0.01,923,Wunderground v.1.15,2013-05-30 17:20:00,
2013-05-30 11:26:00,50.9,41.1,29.77,SW,234,5.0,5.0,69,0.00,,,0.01,951,Wunderground v.1.15,2013-05-30 17:26:00,
2013-05-30 11:32:00,52.0,39.4,29.78,SSW,195,5.0,16.0,62,0.00,,,0.01,686,Wunderground v.1.15,2013-05-30 17:32:00,
2013-05-30 11:38:00,52.2,37.4,29.78,SSW,204,11.0,20.0,57,0.00,,,0.01,345,Wunderground v.1.15,2013-05-30 17:38:00,
2013-05-30 11:44:00,51.3,38.3,29.78,South,186,13.0,16.0,61,0.00,,,0.01,320,Wunderground v.1.15,2013-05-30 17:44:00,
2013-05-30 11:50:00,50.8,39.1,29.78,SW,229,11.0,11.0,64,0.00,,,0.01,362,Wunderground v.1.15,2013-05-30 17:50:00,
2013-05-30 11:56:00,50.8,37.4,29.78,SSW,205,10.0,15.0,60,0.00,,,0.01,418,Wunderground v.1.15,2013-05-30 17:56:00,
2013-05-30 12:02:00,50.8,36.5,29.78,SSW,199,11.0,13.0,58,0.00,,,0.01,464,Wunderground v.1.15,2013-05-30 18:02:00,
2013-05-30 12:08:00,51.1,37.3,29.78,SSE,166,12.0,13.0,59,0.00,,,0.01,573,Wunderground v.1.15,2013-05-30 18:08:00,
2013-05-30 12:14:00,52.0,38.1,29.79,SSW,208,12.0,12.0,59,0.00,,,0.01,1223,Wunderground v.1.15,2013-05-30 18:14:00,
2013-05-30 12:20:00,52.9,38.1,29.79,SSW,209,11.0,11.0,57,0.00,,,0.01,432,Wunderground v.1.15,2013-05-30 18:20:00,
2013-05-30 12:26:00,53.1,37.8,29.79,South,191,10.0,13.0,56,0.00,,,0.01,459,Wunderground v.1.15,2013-05-30 18:26:00,
2013-05-30 12:32:00,53.2,40.1,29.79,WSW,240,11.0,12.0,61,0.00,,,0.01,693,Wunderground v.1.15,2013-05-30 18:32:00,
2013-05-30 12:38:00,53.5,41.2,29.78,West,263,11.0,12.0,63,0.00,,,0.01,670,Wunderground v.1.15,2013-05-30 18:38:00,
2013-05-30 12:44:00,53.5,40.8,29.79,WSW,246,9.0,11.0,62,0.00,,,0.01,399,Wunderground v.1.15,2013-05-30 18:44:00,
2013-05-30 12:52:00,52.6,38.7,29.79,WSW,256,8.0,8.0,59,0.00,,,0.01,258,Wunderground v.1.15,2013-05-30 18:52:00,
2013-05-30 12:58:00,52.1,39.9,29.79,West,275,5.0,7.0,63,0.00,,,0.01,506,Wunderground v.1.15,2013-05-30 18:58:00,
2013-05-30 13:04:00,52.6,40.4,29.79,NW,304,5.0,11.0,63,0.00,,,0.01,932,Wunderground v.1.15,2013-05-30 19:04:00,
2013-05-30 13:10:00,53.3,39.3,29.80,WSW,242,6.0,6.0,59,0.00,,,0.01,383,Wunderground v.1.15,2013-05-30 19:10:00,
2013-05-30 13:16:00,53.7,39.7,29.80,WSW,242,5.0,7.0,59,0.00,,,0.01,617,Wunderground v.1.15,2013-05-30 19:16:00,
2013-05-30 13:22:00,53.9,36.7,29.80,SSE,158,8.0,14.0,52,0.00,,,0.01,457,Wunderground v.1.15,2013-05-30 19:22:00,
2013-05-30 13:28:00,53.6,35.4,29.80,South,191,13.0,16.0,50,0.00,,,0.01,517,Wunderground v.1.15,2013-05-30 19:28:00,
2013-05-30 13:34:00,53.8,35.1,29.81,SSW,194,12.0,17.0,49,0.00,,,0.01,765,Wunderground v.1.15,2013-05-30 19:34:00,
2013-05-30 13:40:00,54.7,35.4,29.81,South,186,14.0,18.0,48,0.00,,,0.01,784,Wunderground v.1.15,2013-05-30 19:40:00,
2013-05-30 13:46:00,54.7,34.3,29.80,SW,217,16.0,19.0,46,0.00,,,0.01,466,Wunderground v.1.15,2013-05-30 19:46:00,
2013-05-30 13:52:00,54.1,34.3,29.80,SSW,200,16.0,19.0,47,0.00,,,0.01,448,Wunderground v.1.15,2013-05-30 19:52:00,
2013-05-30 13:58:00,53.8,34.6,29.81,SSE,168,14.0,19.0,48,0.00,,,0.01,504,Wunderground v.1.15,2013-05-30 19:58:00,
2013-05-30 14:04:00,54.0,35.3,29.80,South,179,13.0,14.0,49,0.00,,,0.01,577,Wunderground v.1.15,2013-05-30 20:04:00,
2013-05-30 14:10:00,54.7,35.9,29.80,SSW,202,12.0,14.0,49,0.00,,,0.01,1345,Wunderground v.1.15,2013-05-30 20:10:00,
2013-05-30 14:16:00,55.8,33.6,29.81,South,170,12.0,17.0,43,0.00,,,0.01,693,Wunderground v.1.15,2013-05-30 20:16:00,
2013-05-30 14:22:00,56.3,35.2,29.81,SSE,153,13.0,13.0,45,0.00,,,0.01,448,Wunderground v.1.15,2013-05-30 20:22:00,
2013-05-30 14:28:00,55.8,34.8,29.81,South,189,13.0,14.0,45,0.00,,,0.01,343,Wunderground v.1.15,2013-05-30 20:28:00,
2013-05-30 14:40:00,54.6,34.8,29.82,SSE,154,12.0,15.0,47,0.00,,,0.01,520,Wunderground v.1.15,2013-05-30 20:40:00,
2013-05-30 14:46:00,54.7,35.4,29.82,SSE,163,13.0,15.0,48,0.00,,,0.01,538,Wunderground v.1.15,2013-05-30 20:46:00,
2013-05-30 14:52:00,54.9,33.9,29.82,SSE,148,11.0,13.0,45,0.00,,,0.01,504,Wunderground v.1.15,2013-05-30 20:52:00,
2013-05-30 14:58:00,55.1,35.2,29.82,SSE,164,12.0,16.0,47,0.00,,,0.01,647,Wunderground v.1.15,2013-05-30 20:58:00,
2013-05-30 15:04:00,55.1,33.0,29.82,South,174,14.0,16.0,43,0.00,,,0.01,763,Wunderground v.1.15,2013-05-30 21:04:00,
2013-05-30 15:10:00,55.0,34.0,29.82,South,188,14.0,14.0,45,0.00,,,0.01,476,Wunderground v.1.15,2013-05-30 21:10:00,
2013-05-30 15:16:00,55.2,33.6,29.82,SSE,153,12.0,14.0,44,0.00,,,0.01,703,Wunderground v.1.15,2013-05-30 21:16:00,
2013-05-30 15:22:00,55.5,33.9,29.81,South,171,12.0,12.0,44,0.00,,,0.01,550,Wunderground v.1.15,2013-05-30 21:22:00,
2013-05-30 15:28:00,55.7,32.9,29.82,South,182,12.0,14.0,42,0.00,,,0.01,663,Wunderground v.1.15,2013-05-30 21:28:00,
2013-05-30 15:34:00,56.2,33.4,29.81,SSE,167,12.0,13.0,42,0.00,,,0.01,814,Wunderground v.1.15,2013-05-30 21:34:00,
2013-05-30 15:40:00,56.6,35.5,29.81,SSW,213,11.0,11.0,45,0.00,,,0.01,826,Wunderground v.1.15,2013-05-30 21:40:00,
2013-05-30 15:46:00,57.0,34.7,29.82,SSW,198,10.0,16.0,43,0.00,,,0.01,373,Wunderground v.1.15,2013-05-30 21:46:00,
2013-05-30 15:52:00,56.6,33.2,29.82,SSE,164,12.0,14.0,41,0.00,,,0.01,355,Wunderground v.1.15,2013-05-30 21:52:00,
2013-05-30 15:58:00,56.0,33.8,29.82,SSE,150,13.0,14.0,43,0.00,,,0.01,341,Wunderground v.1.15,2013-05-30 21:58:00,
2013-05-30 16:04:00,55.4,33.8,29.82,SSE,149,14.0,17.0,44,0.00,,,0.01,345,Wunderground v.1.15,2013-05-30 22:04:00,
2013-05-30 16:10:00,55.1,33.0,29.82,SSE,165,12.0,14.0,43,0.00,,,0.01,517,Wunderground v.1.15,2013-05-30 22:10:00,
2013-05-30 16:16:00,55.3,33.2,29.83,South,188,12.0,17.0,43,0.00,,,0.01,550,Wunderground v.1.15,2013-05-30 22:16:00,
2013-05-30 16:22:00,55.4,34.9,29.83,SSW,196,13.0,17.0,46,0.00,,,0.01,563,Wunderground v.1.15,2013-05-30 22:22:00,
2013-05-30 16:28:00,55.7,32.9,29.83,South,175,14.0,17.0,42,0.00,,,0.01,696,Wunderground v.1.15,2013-05-30 22:28:00,
2013-05-30 16:34:00,56.0,33.8,29.83,South,179,13.0,14.0,43,0.00,,,0.01,775,Wunderground v.1.15,2013-05-30 22:34:00,
2013-05-30 16:40:00,56.4,33.6,29.83,South,175,13.0,13.0,42,0.00,,,0.01,798,Wunderground v.1.15,2013-05-30 22:40:00,
2013-05-30 16:46:00,56.7,33.2,29.84,SSE,157,13.0,13.0,41,0.00,,,0.01,788,Wunderground v.1.15,2013-05-30 22:46:00,
2013-05-30 16:52:00,56.9,34.0,29.84,South,174,12.0,17.0,42,0.00,,,0.01,645,Wunderground v.1.15,2013-05-30 22:52:00,
2013-05-30 16:58:00,56.6,33.8,29.84,SSE,154,13.0,17.0,42,0.00,,,0.01,555,Wunderground v.1.15,2013-05-30 22:58:00,
2013-05-30 17:04:00,56.4,33.6,29.84,SSW,211,12.0,13.0,42,0.00,,,0.01,570,Wunderground v.1.15,2013-05-30 23:04:00,
2013-05-30 17:10:00,56.3,34.1,29.84,South,176,12.0,12.0,43,0.00,,,0.01,568,Wunderground v.1.15,2013-05-30 23:10:00,
2013-05-30 17:16:00,56.3,32.9,29.84,SSE,148,13.0,18.0,41,0.00,,,0.01,468,Wunderground v.1.15,2013-05-30 23:16:00,
2013-05-30 17:22:00,56.0,33.2,29.84,South,173,12.0,13.0,42,0.00,,,0.01,369,Wunderground v.1.15,2013-05-30 23:22:00,
2013-05-30 17:28:00,55.8,33.6,29.85,SSE,164,12.0,15.0,43,0.00,,,0.01,343,Wunderground v.1.15,2013-05-30 23:28:00,
2013-05-30 17:34:00,55.5,32.2,29.85,SE,138,12.0,12.0,41,0.00,,,0.01,346,Wunderground v.1.15,2013-05-30 23:34:00,
2013-05-30 17:42:00,55.1,33.0,29.85,South,182,10.0,10.0,43,0.00,,,0.01,244,Wunderground v.1.15,2013-05-30 23:42:00,
2013-05-30 17:48:00,54.8,32.7,29.85,SSW,192,8.0,11.0,43,0.00,,,0.01,185,Wunderground v.1.15,2013-05-30 23:48:00,
2013-05-30 17:54:00,54.6,31.3,29.86,South,170,9.0,13.0,41,0.00,,,0.01,178,Wunderground v.1.15,2013-05-30 23:54:00,
2013-05-30 18:00:00,54.5,32.4,29.85,SSW,202,10.0,11.0,43,0.00,,,0.01,223,Wunderground v.1.15,2013-05-31 00:00:00,
2013-05-30 18:06:00,54.5,31.3,29.85,SSW,200,11.0,11.0,41,0.00,,,0.01,230,Wunderground v.1.15,2013-05-31 00:06:00,
2013-05-30 18:12:00,54.5,31.9,29.85,SSW,196,10.0,11.0,42,0.00,,,0.01,221,Wunderground v.1.15,2013-05-31 00:12:00,
2013-05-30 18:20:00,54.4,31.2,29.85,South,182,9.0,9.0,41,0.00,,,0.01,234,Wunderground v.1.15,2013-05-31 00:20:00,
2013-05-30 18:26:00,54.5,32.4,29.86,SSW,210,8.0,11.0,43,0.00,,,0.01,258,Wunderground v.1.15,2013-05-31 00:26:00,
2013-05-30 18:32:00,54.7,32.6,29.86,SSW,196,9.0,15.0,43,0.00,,,0.01,204,Wunderground v.1.15,2013-05-31 00:32:00,
2013-05-30 18:38:00,54.7,33.2,29.86,SSW,200,11.0,16.0,44,0.00,,,0.01,236,Wunderground v.1.15,2013-05-31 00:38:00,
2013-05-30 18:44:00,54.5,33.0,29.87,SSE,160,12.0,12.0,44,0.00,,,0.01,262,Wunderground v.1.15,2013-05-31 00:44:00,
2013-05-30 18:50:00,54.4,33.5,29.87,SSE,150,11.0,12.0,45,0.00,,,0.01,202,Wunderground v.1.15,2013-05-31 00:50:00,
2013-05-30 18:56:00,54.0,33.1,29.87,South,175,11.0,12.0,45,0.00,,,0.01,158,Wunderground v.1.15,2013-05-31 00:56:00,
2013-05-30 19:02:00,53.5,33.2,29.87,SSE,158,11.0,12.0,46,0.00,,,0.01,130,Wunderground v.1.15,2013-05-31 01:02:00,
2013-05-30 19:08:00,53.1,34.4,29.87,South,176,9.0,12.0,49,0.00,,,0.01,105,Wunderground v.1.15,2013-05-31 01:08:00,
2013-05-30 19:16:00,52.7,33.5,29.87,SSE,162,8.0,8.0,48,0.00,,,0.01,114,Wunderground v.1.15,2013-05-31 01:16:00,
2013-05-30 19:22:00,52.7,33.0,29.88,SSW,205,6.0,12.0,47,0.00,,,0.01,146,Wunderground v.1.15,2013-05-31 01:22:00,
2013-05-30 19:30:00,52.7,33.0,29.88,SSW,208,11.0,13.0,47,0.00,,,0.01,185,Wunderground v.1.15,2013-05-31 01:30:00,
2013-05-30 19:36:00,52.8,33.1,29.88,SSW,202,11.0,13.0,47,0.00,,,0.01,202,Wunderground v.1.15,2013-05-31 01:36:00,
2013-05-30 19:44:00,52.9,33.7,29.88,SW,217,11.0,11.0,48,0.00,,,0.01,155,Wunderground v.1.15,2013-05-31 01:44:00,
2013-05-30 19:52:00,52.9,33.7,29.89,SW,223,10.0,10.0,48,0.00,,,0.01,144,Wunderground v.1.15,2013-05-31 01:52:00,
2013-05-30 20:00:00,52.7,34.1,29.89,SSW,211,10.0,10.0,49,0.00,,,0.01,90,Wunderground v.1.15,2013-05-31 02:00:00,
2013-05-30 20:08:00,52.3,33.7,29.90,SSW,206,9.0,10.0,49,0.00,,,0.01,69,Wunderground v.1.15,2013-05-31 02:08:00,
2013-05-30 20:14:00,52.0,33.4,29.90,SSW,193,8.0,10.0,49,0.00,,,0.01,79,Wunderground v.1.15,2013-05-31 02:14:00,
2013-05-30 20:20:00,51.8,33.7,29.90,SSW,200,7.0,7.0,50,0.00,,,0.01,84,Wunderground v.1.15,2013-05-31 02:20:00,
2013-05-30 20:26:00,51.8,34.2,29.90,SSW,205,6.0,7.0,51,0.00,,,0.01,69,Wunderground v.1.15,2013-05-31 02:26:00,
2013-05-30 20:32:00,51.6,34.0,29.90,SSW,213,9.0,12.0,51,0.00,,,0.01,51,Wunderground v.1.15,2013-05-31 02:32:00,
2013-05-30 20:38:00,51.3,36.1,29.91,SSW,211,9.0,12.0,56,0.00,,,0.02,39,Wunderground v.1.15,2013-05-31 02:38:00,
2013-05-30 20:44:00,50.7,36.0,29.91,SSW,202,9.0,10.0,57,0.00,,,0.02,32,Wunderground v.1.15,2013-05-31 02:44:00,
2013-05-30 20:50:00,50.2,36.4,29.91,SW,228,7.0,7.0,59,0.00,,,0.02,19,Wunderground v.1.15,2013-05-31 02:50:00,
2013-05-30 20:56:00,49.6,36.3,29.91,SW,221,6.0,9.0,60,0.00,,,0.02,11,Wunderground v.1.15,2013-05-31 02:56:00,
2013-05-30 21:02:00,49.2,35.9,29.91,SW,228,6.0,6.0,60,0.00,,,0.02,7,Wunderground v.1.15,2013-05-31 03:02:00,
2013-05-30 21:08:00,48.8,35.5,29.91,SW,229,5.0,6.0,60,0.00,,,0.02,5,Wunderground v.1.15,2013-05-31 03:08:00,
2013-05-30 21:14:00,48.4,35.6,29.91,SSW,211,5.0,6.0,61,0.00,,,0.02,0,Wunderground v.1.15,2013-05-31 03:14:00,
2013-05-30 21:20:00,48.2,36.6,29.92,SSW,213,4.0,5.0,64,0.00,,,0.02,0,Wunderground v.1.15,2013-05-31 03:20:00,
2013-05-30 21:26:00,47.9,36.3,29.92,SSW,207,2.0,5.0,64,0.00,,,0.02,0,Wunderground v.1.15,2013-05-31 03:26:00,
2013-05-30 21:32:00,47.8,34.6,29.92,South,174,2.0,7.0,60,0.00,,,0.02,0,Wunderground v.1.15,2013-05-31 03:32:00,
2013-05-30 21:38:00,47.7,34.9,29.92,SSW,200,5.0,7.0,61,0.00,,,0.02,0,Wunderground v.1.15,2013-05-31 03:38:00,
2013-05-30 21:44:00,47.6,34.4,29.93,SSW,202,4.0,6.0,60,0.00,,,0.02,0,Wunderground v.1.15,2013-05-31 03:44:00,
2013-05-30 21:50:00,47.4,34.2,29.93,South,184,5.0,5.0,60,0.00,,,0.02,0,Wunderground v.1.15,2013-05-31 03:50:00,
2013-05-30 21:56:00,47.2,34.4,29.93,South,170,3.0,5.0,61,0.00,,,0.02,0,Wunderground v.1.15,2013-05-31 03:56:00,
2013-05-30 22:02:00,47.0,34.2,29.93,South,184,3.0,3.0,61,0.00,,,0.02,0,Wunderground v.1.15,2013-05-31 04:02:00,
2013-05-30 22:04:00,46.9,34.6,29.93,South,184,3.0,3.0,62,0.00,,,0.02,0,Wunderground v.1.15,2013-05-31 04:04:00,
2013-05-30 22:06:00,46.8,34.5,29.93,South,184,2.0,3.0,62,0.00,,,0.02,0,Wunderground v.1.15,2013-05-31 04:06:00,
2013-05-30 22:10:00,46.6,34.3,29.93,South,187,2.0,2.0,62,0.00,,,0.02,0,Wunderground v.1.15,2013-05-31 04:10:00,
2013-05-30 22:14:00,46.5,34.2,29.93,South,187,1.0,2.0,62,0.00,,,0.02,0,Wunderground v.1.15,2013-05-31 04:14:00,
2013-05-30 22:20:00,46.3,34.0,29.94,South,189,1.0,2.0,62,0.00,,,0.02,0,Wunderground v.1.15,2013-05-31 04:20:00,
2013-05-30 22:26:00,46.1,34.6,29.94,South,189,1.0,2.0,64,0.00,,,0.02,0,Wunderground v.1.15,2013-05-31 04:26:00,
2013-05-30 22:32:00,45.9,34.8,29.94,South,189,0.0,0.0,65,0.00,,,0.02,0,Wunderground v.1.15,2013-05-31 04:32:00,
2013-05-30 22:38:00,45.7,35.0,29.94,SSW,194,0.0,2.0,66,0.00,,,0.02,0,Wunderground v.1.15,2013-05-31 04:38:00,
2013-05-30 22:44:00,45.5,35.2,29.95,SSW,195,0.0,0.0,67,0.00,,,0.02,0,Wunderground v.1.15,2013-05-31 04:44:00,
2013-05-30 22:50:00,45.4,35.5,29.95,SSW,202,0.0,0.0,68,0.00,,,0.02,0,Wunderground v.1.15,2013-05-31 04:50:00,
2013-05-30 22:56:00,45.3,35.4,29.95,SSW,212,2.0,5.0,68,0.00,,,0.02,0,Wunderground v.1.15,2013-05-31 04:56:00,
2013-05-30 23:02:00,45.4,35.8,29.95,SSW,207,4.0,4.0,69,0.00,,,0.02,0,Wunderground v.1.15,2013-05-31 05:02:00,
2013-05-30 23:08:00,45.5,35.9,29.95,SSW,194,2.0,5.0,69,0.00,,,0.02,0,Wunderground v.1.15,2013-05-31 05:08:00,
2013-05-30 23:14:00,45.6,34.5,29.96,South,175,5.0,9.0,65,0.00,,,0.02,0,Wunderground v.1.15,2013-05-31 05:14:00,
2013-05-30 23:22:00,45.6,35.3,29.96,SSE,155,10.0,10.0,67,0.00,,,0.02,0,Wunderground v.1.15,2013-05-31 05:22:00,
2013-05-30 23:28:00,45.4,35.1,29.95,SSE,159,9.0,14.0,67,0.00,,,0.02,0,Wunderground v.1.15,2013-05-31 05:28:00,
2013-05-30 23:34:00,45.2,35.3,29.95,SSE,163,9.0,9.0,68,0.00,,,0.02,0,Wunderground v.1.15,2013-05-31 05:34:00,
2013-05-30 23:40:00,45.0,35.4,29.95,SSE,153,9.0,9.0,69,0.00,,,0.02,0,Wunderground v.1.15,2013-05-31 05:40:00,
2013-05-30 23:46:00,44.9,35.0,29.96,SSE,164,9.0,10.0,68,0.00,,,0.02,0,Wunderground v.1.15,2013-05-31 05:46:00,
2013-05-30 23:52:00,44.8,35.2,29.95,SE,141,8.0,8.0,69,0.00,,,0.02,0,Wunderground v.1.15,2013-05-31 05:52:00,
2013-05-30 23:58:00,44.7,35.1,29.96,South,174,6.0,8.0,69,0.00,,,0.00,0,Wunderground v.1.15,2013-05-31 05:58:00,